Time;durP1;ratioP1;P1;durP2;ratioP2;P2;SDS_P1;SDS_P2;PMS_P1;PMS_P2;Temp;Humidity;BMP_temperature;BMP_pressure;BME280_temperature;BME280_humidity;BME280_pressure;Samples;Min_cycle;Max_cycle;Signal;HPM_P1;HPM_P2
2021/10/27 00:01:49;;;;;;;41.33;23.75;;;;;;;12.24;100.00;102086.31;5015397;28;20547;-60
2021/10/27 00:04:14;;;;;;;42.67;23.52;;;;;;;12.13;100.00;102085.22;5012021;28;20129;-61
2021/10/27 00:06:40;;;;;;;42.35;23.27;;;;;;;11.97;100.00;102097.31;5011710;28;20100;-60
2021/10/27 00:09:06;;;;;;;45.08;25.77;;;;;;;11.91;100.00;102097.16;5014488;28;20025;-60
2021/10/27 00:11:32;;;;;;;45.17;24.98;;;;;;;11.90;100.00;102098.03;5015252;28;20156;-60
2021/10/27 00:13:57;;;;;;;44.20;25.25;;;;;;;11.89;100.00;102093.63;5015818;28;20123;-61
2021/10/27 00:16:23;;;;;;;41.33;23.40;;;;;;;11.90;100.00;102093.63;5018452;28;20417;-60
2021/10/27 00:18:48;;;;;;;42.28;23.80;;;;;;;11.93;100.00;102090.16;5016533;28;20373;-60
2021/10/27 00:21:14;;;;;;;42.33;23.73;;;;;;;11.97;100.00;102092.00;5013817;28;20355;-60
2021/10/27 00:23:39;;;;;;;42.60;23.50;;;;;;;12.08;100.00;102100.19;5012553;28;20935;-60
2021/10/27 00:26:05;;;;;;;43.10;23.65;;;;;;;12.10;100.00;102088.75;5013180;28;20029;-60
2021/10/27 00:28:30;;;;;;;43.25;22.17;;;;;;;12.06;100.00;102100.16;5020819;28;20099;-60
2021/10/27 00:30:56;;;;;;;42.72;23.35;;;;;;;11.99;100.00;102095.59;5014437;28;20041;-60
2021/10/27 00:33:22;;;;;;;41.17;22.10;;;;;;;11.95;100.00;102088.44;5019238;28;20025;-60
2021/10/27 00:35:47;;;;;;;46.08;23.50;;;;;;;11.94;100.00;102097.25;5010369;28;20065;-60
2021/10/27 00:38:13;;;;;;;41.67;22.23;;;;;;;11.97;100.00;102102.59;5011270;28;20045;-60
2021/10/27 00:40:38;;;;;;;45.97;23.88;;;;;;;11.96;100.00;102093.78;5012191;28;20105;-60
2021/10/27 00:43:03;;;;;;;43.42;22.60;;;;;;;11.97;100.00;102100.88;5014234;28;20056;-60
2021/10/27 00:45:29;;;;;;;42.72;22.17;;;;;;;11.97;100.00;102095.56;5009672;28;20367;-60
2021/10/27 00:47:54;;;;;;;44.35;22.73;;;;;;;12.07;100.00;102095.72;5005201;28;20050;-61
2021/10/27 00:50:20;;;;;;;43.55;22.50;;;;;;;11.99;100.00;102099.13;5014415;28;20030;-60
2021/10/27 00:52:45;;;;;;;39.97;20.50;;;;;;;12.05;100.00;102122.22;5012081;28;20034;-60
2021/10/27 00:55:11;;;;;;;43.08;23.15;;;;;;;12.00;100.00;102087.69;5013864;28;20053;-60
2021/10/27 00:57:37;;;;;;;41.30;22.60;;;;;;;12.02;100.00;102106.25;5008160;28;20538;-60
2021/10/27 01:00:06;;;;;;;40.22;21.70;;;;;;;11.92;100.00;102088.38;5009679;28;20117;-60
2021/10/27 01:02:32;;;;;;;45.65;22.35;;;;;;;11.89;100.00;102091.84;5012689;28;20052;-59
2021/10/27 01:04:57;;;;;;;42.78;21.60;;;;;;;11.88;100.00;102094.47;5005655;28;20030;-62
2021/10/27 01:07:25;;;;;;;40.88;19.65;;;;;;;11.90;100.00;102082.13;5013673;28;20052;-61
2021/10/27 01:09:50;;;;;;;40.88;20.98;;;;;;;11.95;100.00;102083.16;5010353;28;20470;-62
2021/10/27 01:12:16;;;;;;;35.53;18.42;;;;;;;11.94;100.00;102076.97;5014391;28;20226;-63
2021/10/27 01:14:43;;;;;;;37.65;18.95;;;;;;;12.00;100.00;102076.19;5014959;28;20025;-61
2021/10/27 01:17:11;;;;;;;37.63;18.92;;;;;;;12.01;100.00;102078.88;5008267;28;20061;-61
2021/10/27 01:19:56;;;;;;;38.28;18.98;;;;;;;12.09;100.00;102075.47;5016176;28;20252;-61
2021/10/27 01:22:25;;;;;;;37.50;18.48;;;;;;;12.08;100.00;102069.25;5010338;28;20106;-60
2021/10/27 01:24:53;;;;;;;37.13;17.88;;;;;;;12.10;100.00;102070.19;5010788;28;20041;-61
2021/10/27 01:27:19;;;;;;;37.40;17.38;;;;;;;12.13;100.00;102067.59;5017719;28;20116;-62
2021/10/27 01:29:45;;;;;;;36.53;15.98;;;;;;;12.16;100.00;102062.34;5011102;28;20083;-63
2021/10/27 01:32:30;;;;;;;33.42;16.40;;;;;;;12.16;100.00;102064.09;5012357;28;20065;-63
2021/10/27 01:34:57;;;;;;;35.50;15.68;;;;;;;12.16;100.00;102067.63;5016990;28;20084;-61
2021/10/27 01:37:23;;;;;;;33.85;15.70;;;;;;;12.19;100.00;102066.81;5017224;28;20049;-60
2021/10/27 01:39:49;;;;;;;37.08;15.32;;;;;;;12.16;100.00;102067.63;5012627;28;20022;-60
2021/10/27 01:42:14;;;;;;;33.90;14.52;;;;;;;12.21;100.00;102060.63;5014050;28;20465;-60
2021/10/27 01:44:40;;;;;;;34.85;14.35;;;;;;;12.22;100.00;102061.56;5010258;28;20072;-61
2021/10/27 01:47:06;;;;;;;32.70;14.30;;;;;;;12.25;100.00;102060.72;5013253;28;20033;-60
2021/10/27 01:49:32;;;;;;;34.90;13.95;;;;;;;12.23;100.00;102059.78;5016669;28;20029;-60
2021/10/27 01:51:58;;;;;;;31.63;13.43;;;;;;;12.24;100.00;102053.63;5021495;28;20107;-60
2021/10/27 01:54:25;;;;;;;31.92;13.10;;;;;;;12.27;100.00;102043.06;5022430;28;20025;-60
2021/10/27 01:56:50;;;;;;;36.92;13.80;;;;;;;12.26;100.00;102046.56;5020979;28;20036;-60
2021/10/27 01:59:16;;;;;;;32.53;13.32;;;;;;;12.26;100.00;102051.88;5018965;28;20401;-59
2021/10/27 02:01:41;;;;;;;31.00;12.77;;;;;;;12.27;100.00;102053.66;5016224;28;20084;-60
2021/10/27 02:04:06;;;;;;;32.88;13.20;;;;;;;12.31;100.00;102059.03;5017281;28;20030;-60
2021/10/27 02:06:32;;;;;;;32.33;13.40;;;;;;;12.34;100.00;102050.25;5015783;28;20029;-60
2021/10/27 02:08:57;;;;;;;28.67;12.70;;;;;;;12.35;100.00;102055.56;5018226;28;20058;-60
2021/10/27 02:11:23;;;;;;;29.27;12.27;;;;;;;12.42;100.00;102048.63;5019024;28;20429;-60
2021/10/27 02:13:48;;;;;;;33.90;13.07;;;;;;;12.34;100.00;102044.94;5022024;28;20022;-60
2021/10/27 02:16:14;;;;;;;31.27;12.90;;;;;;;12.34;100.00;102047.59;5014194;28;20053;-60
2021/10/27 02:18:39;;;;;;;32.72;13.38;;;;;;;12.34;100.00;102055.56;5016041;28;20037;-60
2021/10/27 02:21:04;;;;;;;32.45;12.93;;;;;;;12.30;100.00;102044.00;5016151;28;20044;-60
2021/10/27 02:23:30;;;;;;;31.67;12.70;;;;;;;12.30;100.00;102043.09;5019402;28;20366;-60
2021/10/27 02:25:55;;;;;;;30.23;12.48;;;;;;;12.37;100.00;102050.28;5016927;28;20437;-60
2021/10/27 02:28:21;;;;;;;29.98;12.38;;;;;;;12.37;100.00;102045.88;5018755;28;20145;-60
2021/10/27 02:30:46;;;;;;;33.63;13.00;;;;;;;12.30;100.00;102054.59;5012272;28;20054;-60
2021/10/27 02:33:12;;;;;;;30.60;12.52;;;;;;;12.31;100.00;102059.03;5018536;28;20024;-61
2021/10/27 02:35:37;;;;;;;30.33;12.43;;;;;;;12.28;100.00;102060.75;5016190;28;20083;-60
2021/10/27 02:38:03;;;;;;;33.55;13.00;;;;;;;12.33;100.00;102056.41;5012290;28;20026;-60
2021/10/27 02:40:28;;;;;;;31.85;13.18;;;;;;;12.30;100.00;102051.94;5020375;28;20029;-60
2021/10/27 02:42:53;;;;;;;30.65;12.95;;;;;;;12.34;100.00;102044.94;5007438;28;20049;-61
2021/10/27 02:45:19;;;;;;;32.65;12.60;;;;;;;12.39;100.00;102056.50;5011807;28;20049;-60
2021/10/27 02:47:45;;;;;;;31.60;13.15;;;;;;;12.33;100.00;102049.38;5011161;28;20026;-60
2021/10/27 02:50:12;;;;;;;32.72;13.30;;;;;;;12.35;100.00;102038.78;5009823;28;20029;-60
2021/10/27 02:52:38;;;;;;;34.30;13.20;;;;;;;12.36;100.00;102045.84;5012117;28;20061;-60
2021/10/27 02:55:05;;;;;;;30.15;12.65;;;;;;;12.34;100.00;102039.66;5011161;28;20562;-60
2021/10/27 02:57:30;;;;;;;31.58;12.18;;;;;;;12.35;100.00;102044.09;5018495;28;20029;-60
2021/10/27 02:59:56;;;;;;;31.42;13.07;;;;;;;12.31;100.00;102045.78;5007486;28;20053;-60
2021/10/27 03:02:21;;;;;;;31.48;13.07;;;;;;;12.27;100.00;102051.91;5004824;28;20101;-60
2021/10/27 03:04:47;;;;;;;31.02;13.00;;;;;;;12.31;100.00;102052.84;5011503;28;20022;-59
2021/10/27 03:07:12;;;;;;;30.48;12.38;;;;;;;12.32;100.00;102059.91;5011995;28;20132;-60
2021/10/27 03:09:37;;;;;;;31.20;12.70;;;;;;;12.41;100.00;102056.53;5014950;28;20026;-60
2021/10/27 03:12:03;;;;;;;31.95;12.68;;;;;;;12.32;100.00;102057.28;5012901;28;20026;-61
2021/10/27 03:14:28;;;;;;;31.20;12.50;;;;;;;12.29;100.00;102054.56;5013717;28;20038;-59
2021/10/27 03:16:55;;;;;;;31.58;12.75;;;;;;;12.29;100.00;102046.63;5013955;28;20105;-60
2021/10/27 03:19:20;;;;;;;32.20;13.52;;;;;;;12.25;100.00;102047.47;5009443;28;20049;-60
2021/10/27 03:21:46;;;;;;;32.45;12.85;;;;;;;12.23;100.00;102055.34;5012881;28;20455;-60
2021/10/27 03:24:11;;;;;;;29.38;12.05;;;;;;;12.23;100.00;102065.09;5008751;28;20119;-60
2021/10/27 03:26:37;;;;;;;30.50;12.68;;;;;;;12.19;100.00;102067.69;5009822;28;20054;-60
2021/10/27 03:29:02;;;;;;;31.00;12.63;;;;;;;12.19;100.00;102073.00;5013663;28;20021;-60
2021/10/27 03:31:27;;;;;;;31.10;12.45;;;;;;;12.14;100.00;102063.16;5004991;28;20026;-60
2021/10/27 03:33:53;;;;;;;30.58;12.25;;;;;;;12.10;100.00;102063.97;5015188;28;20030;-60
2021/10/27 03:36:19;;;;;;;32.22;12.32;;;;;;;12.07;100.00;102061.28;5009073;28;20076;-60
2021/10/27 03:38:45;;;;;;;31.52;12.70;;;;;;;11.97;100.00;102063.78;5012547;28;20030;-59
2021/10/27 03:41:10;;;;;;;29.23;12.27;;;;;;;11.86;100.00;102068.81;5011100;28;20024;-60
2021/10/27 03:43:35;;;;;;;31.88;13.10;;;;;;;11.82;100.00;102071.41;5015591;28;20352;-60
2021/10/27 03:46:01;;;;;;;30.85;12.68;;;;;;;11.78;100.00;102078.41;5013330;28;20437;-60
2021/10/27 03:48:26;;;;;;;31.25;12.88;;;;;;;11.72;100.00;102074.75;5011452;28;20069;-60
2021/10/27 03:50:52;;;;;;;35.15;13.90;;;;;;;11.72;100.00;102075.63;5013975;28;20029;-60
2021/10/27 03:53:17;;;;;;;32.05;13.75;;;;;;;11.65;100.00;102081.69;5012420;28;20038;-61
2021/10/27 03:55:42;;;;;;;31.88;13.13;;;;;;;11.65;100.00;102073.75;5014985;28;20033;-63
2021/10/27 03:58:08;;;;;;;33.10;13.75;;;;;;;11.56;100.00;102079.72;5019268;28;20076;-63
2021/10/27 04:00:36;;;;;;;35.85;14.20;;;;;;;11.45;100.00;102082.16;5009749;28;20121;-62
2021/10/27 04:03:02;;;;;;;31.83;14.00;;;;;;;11.48;100.00;102084.88;5017317;28;20032;-63
2021/10/27 04:05:27;;;;;;;36.42;14.25;;;;;;;11.41;100.00;102085.59;5016819;28;20029;-62
2021/10/27 04:07:52;;;;;;;33.83;14.18;;;;;;;11.49;100.00;102081.38;5013030;28;20034;-63
2021/10/27 04:10:18;;;;;;;34.20;14.55;;;;;;;11.41;100.00;102079.44;5016596;28;20026;-62
2021/10/27 04:12:43;;;;;;;32.70;14.00;;;;;;;11.36;100.00;102082.00;5013320;28;20030;-63
2021/10/27 04:15:10;;;;;;;33.53;13.90;;;;;;;11.34;100.00;102084.59;5015914;28;20030;-63
2021/10/27 04:17:37;;;;;;;32.92;13.23;;;;;;;11.31;100.00;102078.34;5015012;28;20026;-62
2021/10/27 04:20:05;;;;;;;35.22;14.10;;;;;;;11.25;100.00;102078.22;5014255;28;20030;-62
2021/10/27 04:22:31;;;;;;;30.95;13.23;;;;;;;11.23;100.00;102080.84;5014801;28;20033;-63
2021/10/27 04:24:56;;;;;;;34.13;13.68;;;;;;;11.21;100.00;102076.34;5011281;28;20444;-63
2021/10/27 04:27:22;;;;;;;33.38;14.20;;;;;;;11.17;100.00;102075.41;5015915;28;20126;-63
2021/10/27 04:29:48;;;;;;;36.33;14.48;;;;;;;11.12;100.00;102079.69;5017417;28;20026;-63
2021/10/27 04:32:14;;;;;;;35.35;14.35;;;;;;;11.16;100.00;102077.16;5015605;28;20053;-62
2021/10/27 04:34:39;;;;;;;34.10;14.75;;;;;;;11.13;100.00;102074.44;5018272;28;20044;-63
2021/10/27 04:37:05;;;;;;;32.45;14.05;;;;;;;11.10;100.00;102082.31;5018637;28;20033;-62
2021/10/27 04:39:30;;;;;;;33.60;14.10;;;;;;;11.04;100.00;102084.84;5012384;28;20030;-63
2021/10/27 04:41:56;;;;;;;35.05;14.80;;;;;;;11.01;100.00;102082.13;5015275;28;20036;-63
2021/10/27 04:44:21;;;;;;;35.55;14.60;;;;;;;10.96;100.00;102081.13;5016023;28;20061;-64
2021/10/27 04:46:47;;;;;;;35.40;14.20;;;;;;;10.95;100.00;102087.25;5011692;28;20407;-63
2021/10/27 04:49:12;;;;;;;34.85;14.23;;;;;;;10.99;100.00;102086.47;5015746;28;20071;-62
2021/10/27 04:51:37;;;;;;;35.75;15.07;;;;;;;10.97;100.00;102088.22;5011869;28;20018;-63
2021/10/27 04:54:03;;;;;;;34.92;14.70;;;;;;;10.91;100.00;102093.38;5017018;28;20057;-63
2021/10/27 04:56:30;;;;;;;36.78;14.75;;;;;;;10.88;100.00;102088.88;5016781;28;20378;-62
2021/10/27 04:58:55;;;;;;;38.05;14.95;;;;;;;10.81;100.00;102093.13;5014267;28;20037;-63
2021/10/27 05:01:20;;;;;;;34.55;14.90;;;;;;;10.82;100.00;102083.47;5012796;28;20022;-62
2021/10/27 05:03:46;;;;;;;36.20;14.93;;;;;;;10.76;100.00;102088.59;5011384;28;20037;-63
2021/10/27 05:06:12;;;;;;;35.00;14.98;;;;;;;10.70;100.00;102084.03;5009486;28;20030;-63
2021/10/27 05:08:38;;;;;;;33.65;14.23;;;;;;;10.66;100.00;102089.22;5017652;28;20053;-62
2021/10/27 05:11:04;;;;;;;36.30;14.90;;;;;;;10.58;100.00;102092.59;5006537;28;20066;-63
2021/10/27 05:13:29;;;;;;;38.75;15.85;;;;;;;10.61;100.00;102097.94;5016486;28;20607;-62
2021/10/27 05:15:55;;;;;;;35.83;15.38;;;;;;;10.61;100.00;102095.28;5005524;28;20065;-63
2021/10/27 05:18:20;;;;;;;34.40;14.77;;;;;;;10.59;100.00;102091.75;5010321;28;20033;-63
2021/10/27 05:20:46;;;;;;;36.75;14.95;;;;;;;10.58;100.00;102094.34;5016072;28;20075;-63
2021/10/27 05:23:13;;;;;;;34.00;15.30;;;;;;;10.53;100.00;102093.31;5010341;28;20485;-62
2021/10/27 05:25:38;;;;;;;37.22;15.95;;;;;;;10.50;100.00;102090.59;5010644;28;20055;-63
2021/10/27 05:28:05;;;;;;;37.05;16.05;;;;;;;10.51;100.00;102097.69;5010461;28;20029;-62
2021/10/27 05:30:30;;;;;;;37.60;15.30;;;;;;;10.43;100.00;102090.47;5016133;28;20061;-62
2021/10/27 05:32:57;;;;;;;36.40;15.70;;;;;;;10.45;100.00;102088.75;5010844;28;20113;-62
2021/10/27 05:35:27;;;;;;;36.88;15.73;;;;;;;10.53;100.00;102088.94;5018304;28;20030;-62
2021/10/27 05:37:54;;;;;;;37.08;15.48;;;;;;;10.60;100.00;102089.97;5020324;28;20029;-62
2021/10/27 05:40:20;;;;;;;38.83;15.52;;;;;;;10.54;100.00;102092.47;5019927;28;20078;-63
2021/10/27 05:42:46;;;;;;;37.38;15.20;;;;;;;10.53;100.00;102088.03;5016049;28;20033;-64
2021/10/27 05:45:12;;;;;;;35.03;15.70;;;;;;;10.48;100.00;102090.56;5018784;28;20021;-64
2021/10/27 05:47:40;;;;;;;33.95;15.10;;;;;;;10.55;100.00;102091.63;5016845;28;20376;-64
2021/10/27 05:55:34;;;;;;;36.22;15.32;;;;;;;10.38;100.00;102093.84;5016328;28;20064;-64
2021/10/27 05:58:00;;;;;;;35.30;15.18;;;;;;;10.42;100.00;102087.78;5021338;28;20030;-64
2021/10/27 06:00:26;;;;;;;35.03;15.40;;;;;;;10.50;100.00;102082.69;5017583;28;20029;-64
2021/10/27 06:02:51;;;;;;;35.40;16.10;;;;;;;10.48;100.00;102087.03;5015850;28;20099;-65
2021/10/27 06:05:17;;;;;;;36.50;15.95;;;;;;;10.51;100.00;102089.75;5017277;28;20055;-64
2021/10/27 06:07:43;;;;;;;33.17;15.38;;;;;;;10.56;100.00;102091.66;5018434;28;20144;-65
2021/10/27 06:10:11;;;;;;;35.50;16.00;;;;;;;10.58;100.00;102087.28;5014530;28;20409;-64
2021/10/27 06:12:38;;;;;;;35.15;15.80;;;;;;;10.55;100.00;102079.28;5018635;28;20033;-64
2021/10/27 06:15:05;;;;;;;36.42;16.38;;;;;;;10.51;100.00;102092.41;5019562;28;20088;-63
2021/10/27 06:17:30;;;;;;;37.90;16.63;;;;;;;10.52;100.00;102084.50;5016932;28;20033;-64
2021/10/27 06:19:57;;;;;;;37.13;16.35;;;;;;;10.42;100.00;102088.66;5017393;28;20360;-65
2021/10/27 06:22:23;;;;;;;37.30;15.23;;;;;;;10.51;100.00;102084.47;5021603;28;20025;-64
2021/10/27 06:24:48;;;;;;;34.65;15.52;;;;;;;10.50;100.00;102091.53;5016803;28;20054;-64
2021/10/27 06:27:14;;;;;;;33.53;15.13;;;;;;;10.46;100.00;102101.13;5016840;28;20476;-65
2021/10/27 06:34:45;;;;;;;34.33;16.10;;;;;;;10.40;100.00;102103.63;5015213;28;20041;-64
2021/10/27 06:47:50;;;;;;;35.70;15.55;;;;;;;10.31;100.00;102127.16;5008595;28;20116;-64
2021/10/27 06:50:16;;;;;;;35.78;15.07;;;;;;;10.32;100.00;102122.75;5008545;28;20499;-64
2021/10/27 06:52:42;;;;;;;34.10;15.20;;;;;;;10.29;100.00;102127.09;5016790;28;20029;-64
2021/10/27 06:55:07;;;;;;;36.47;15.65;;;;;;;10.32;100.00;102136.84;5010511;28;20080;-64
2021/10/27 06:57:34;;;;;;;35.72;15.85;;;;;;;10.37;100.00;102126.41;5018021;28;20117;-64
2021/10/27 07:00:10;;;;;;;35.45;15.40;;;;;;;10.34;100.00;102127.25;5010758;28;20029;-63
2021/10/27 07:16:15;;;;;;;37.13;16.30;;;;;;;10.51;100.00;102142.66;5010233;28;20065;-62
2021/10/27 07:18:40;;;;;;;35.85;16.45;;;;;;;10.58;100.00;102147.22;5012490;28;20483;-63
2021/10/27 07:21:06;;;;;;;37.65;16.20;;;;;;;10.65;100.00;102138.59;5013682;28;20421;-62
2021/10/27 07:23:33;;;;;;;36.22;16.30;;;;;;;10.73;100.00;102139.69;5016810;28;20032;-63
2021/10/27 07:25:59;;;;;;;33.90;15.90;;;;;;;10.87;100.00;102147.06;5013496;28;20033;-63
2021/10/27 07:28:30;;;;;;;33.90;15.93;;;;;;;11.00;100.00;102151.78;5016103;28;20035;-62
2021/10/27 07:30:58;;;;;;;33.97;15.57;;;;;;;11.07;100.00;102145.75;5015359;28;20026;-65
2021/10/27 07:33:25;;;;;;;36.00;16.00;;;;;;;11.16;100.00;102159.19;5011193;28;20469;-62
2021/10/27 07:35:57;;;;;;;34.58;15.70;;;;;;;11.21;100.00;102147.81;5019292;28;20053;-63
2021/10/27 07:41:06;;;;;;;33.95;15.82;;;;;;;11.25;100.00;102152.34;5017548;28;20392;-62
2021/10/27 07:43:32;;;;;;;30.63;14.63;;;;;;;11.33;100.00;102156.06;5006604;28;20030;-64
2021/10/27 07:46:00;;;;;;;31.98;15.68;;;;;;;11.32;100.00;102159.56;5018941;28;20095;-63
2021/10/27 07:48:27;;;;;;;37.13;16.75;;;;;;;11.33;100.00;102162.22;5010846;28;20037;-62
2021/10/27 07:50:53;;;;;;;33.08;16.73;;;;;;;11.43;100.00;102163.34;5016516;28;20037;-62
2021/10/27 07:53:19;;;;;;;32.53;15.88;;;;;;;11.53;100.00;102164.41;5011079;28;20025;-62
2021/10/27 07:55:46;;;;;;;33.08;16.98;;;;;;;11.56;100.00;102176.81;5012403;28;20029;-62
2021/10/27 07:58:13;;;;;;;32.50;16.05;;;;;;;11.64;100.00;102177.91;5016718;28;20469;-62
2021/10/27 08:00:40;;;;;;;34.42;16.40;;;;;;;11.68;100.00;102191.22;5008856;28;20054;-63
2021/10/27 08:03:05;;;;;;;36.10;17.27;;;;;;;11.73;100.00;102185.13;5014470;28;20025;-63
2021/10/27 08:05:40;;;;;;;34.60;17.42;;;;;;;11.89;100.00;102191.66;5011183;28;20022;-63
2021/10/27 08:08:07;;;;;;;35.05;17.30;;;;;;;12.01;100.00;102195.47;5009327;28;20089;-63
2021/10/27 08:10:33;;;;;;;32.03;16.58;;;;;;;12.18;100.00;102203.75;5011481;28;20473;-63
2021/10/27 08:12:59;;;;;;;33.55;16.98;;;;;;;12.47;100.00;102206.03;5013494;28;20036;-64
2021/10/27 08:15:26;;;;;;;33.95;16.92;;;;;;;12.64;100.00;102205.44;5012952;28;21358;-64
2021/10/27 08:17:52;;;;;;;34.55;17.15;;;;;;;12.65;100.00;102199.28;5019534;28;20371;-65
2021/10/27 08:20:20;;;;;;;34.58;16.95;;;;;;;12.68;100.00;102204.63;5010580;28;20547;-64
2021/10/27 08:22:49;;;;;;;31.92;17.98;;;;;;;12.67;100.00;102210.84;5018299;28;20104;-65
2021/10/27 08:25:34;;;;;;;32.47;17.70;;;;;;;12.63;100.00;102203.69;5010371;28;20070;-64
2021/10/27 08:28:04;;;;;;;33.78;17.50;;;;;;;12.67;100.00;102203.75;5008838;28;20033;-64
2021/10/27 08:30:50;;;;;;;36.95;18.45;;;;;;;12.73;100.00;102208.28;5013790;28;20469;-64
2021/10/27 08:36:05;;;;;;;34.10;18.08;;;;;;;12.81;100.00;102205.75;4970031;28;20031;-62
2021/10/27 08:38:30;;;;;;;34.75;18.00;;;;;;;12.72;100.00;102203.81;4970334;28;20039;-63
2021/10/27 08:40:57;;;;;;;35.00;17.70;;;;;;;12.77;100.00;102194.19;4973368;28;20283;-64
2021/10/27 08:43:25;;;;;;;35.35;18.38;;;;;;;12.96;100.00;102191.81;4968552;28;20085;-65
2021/10/27 08:45:53;;;;;;;34.40;17.10;;;;;;;13.01;100.00;102208.72;4973126;28;20023;-65
2021/10/27 08:48:19;;;;;;;36.53;17.90;;;;;;;13.00;100.00;102193.66;4974440;28;20034;-64
2021/10/27 08:50:45;;;;;;;33.60;18.73;;;;;;;13.04;100.00;102192.84;4971824;28;20029;-64
2021/10/27 08:53:14;;;;;;;34.50;18.48;;;;;;;13.13;100.00;102203.59;4974557;28;20046;-64
2021/10/27 08:55:42;;;;;;;36.15;19.50;;;;;;;13.16;100.00;102197.44;4972909;28;20121;-62
2021/10/27 08:58:08;;;;;;;34.25;18.48;;;;;;;13.18;100.00;102199.25;4973476;28;20034;-62
2021/10/27 09:01:13;;;;;;;34.40;18.65;;;;;;;13.19;100.00;102195.75;4967941;28;20262;-63
2021/10/27 09:03:39;;;;;;;37.03;18.40;;;;;;;13.40;100.00;102192.53;4968609;28;20043;-64
2021/10/27 09:14:57;;;;;;;32.42;16.95;;;;;;;13.49;96.52;102205.03;5006704;28;20053;-64
2021/10/27 09:34:29;;;;;;;34.28;17.27;;;;;;;13.75;92.62;102193.88;5014987;28;20443;-63
2021/10/27 09:37:25;;;;;;;31.80;16.30;;;;;;;13.93;93.07;102196.75;5013460;28;20033;-63
2021/10/27 09:43:32;;;;;;;34.55;18.13;;;;;;;14.45;90.16;102199.06;4970402;28;20840;-62
2021/10/27 10:05:18;;;;;;;31.73;14.70;;;;;;;15.61;78.37;102197.31;4970347;28;20297;-63
2021/10/27 10:07:44;;;;;;;28.45;13.75;;;;;;;15.74;77.34;102200.94;4969514;28;20397;-62
2021/10/27 10:10:11;;;;;;;29.10;13.27;;;;;;;15.67;77.27;102200.00;4969906;28;20027;-62
2021/10/27 10:12:48;;;;;;;27.15;13.45;;;;;;;15.77;78.10;102205.34;4970853;28;20035;-62
2021/10/27 10:15:15;;;;;;;26.48;13.15;;;;;;;16.27;75.87;102206.47;5017964;28;20112;-62
2021/10/27 10:17:45;;;;;;;29.55;14.25;;;;;;;16.42;74.50;102210.94;5019933;28;20029;-62
2021/10/27 10:20:12;;;;;;;27.38;12.50;;;;;;;17.12;72.33;102210.06;5014039;28;20025;-62
2021/10/27 10:22:40;;;;;;;29.65;13.35;;;;;;;17.60;69.67;102215.31;5018767;28;20053;-63
2021/10/27 10:25:17;;;;;;;26.50;12.00;;;;;;;17.55;69.67;102203.75;5012948;28;20050;-63
2021/10/27 10:27:44;;;;;;;26.58;11.40;;;;;;;17.72;68.08;102211.69;5006667;28;20042;-63
2021/10/27 10:30:29;;;;;;;25.73;11.40;;;;;;;18.04;67.83;102191.97;5013856;28;20025;-61
2021/10/27 10:33:09;;;;;;;25.48;11.13;;;;;;;18.59;65.99;102205.00;5008585;28;20031;-60
2021/10/27 10:36:01;;;;;;;27.15;11.25;;;;;;;18.34;66.73;102204.28;5017253;28;20022;-61
2021/10/27 11:41:07;;;;;;;25.70;9.75;;;;;;;19.99;57.71;102191.09;5014507;28;20159;-60
2021/10/27 11:43:54;;;;;;;26.33;10.35;;;;;;;19.04;60.21;102175.19;5015737;28;20058;-60
2021/10/27 11:46:25;;;;;;;26.80;10.38;;;;;;;18.18;64.14;102181.22;5016465;28;20026;-61
2021/10/27 11:48:57;;;;;;;26.17;10.38;;;;;;;17.64;65.95;102185.00;5013341;28;20030;-62
2021/10/27 11:51:23;;;;;;;26.42;10.25;;;;;;;17.41;65.95;102187.75;5016259;28;20037;-62
2021/10/27 11:53:49;;;;;;;28.35;11.00;;;;;;;17.19;68.45;102171.78;5008264;28;20026;-62
2021/10/27 11:56:18;;;;;;;24.60;10.35;;;;;;;17.12;67.70;102183.34;5010742;28;20479;-61
2021/10/27 11:59:01;;;;;;;25.80;10.30;;;;;;;16.99;67.76;102174.47;5006181;28;20045;-60
2021/10/27 12:01:37;;;;;;;25.20;10.18;;;;;;;16.95;68.57;102172.72;5007579;28;20026;-61
2021/10/27 12:04:16;;;;;;;25.13;10.40;;;;;;;16.82;67.74;102187.81;5005286;28;20034;-62
2021/10/27 12:09:40;;;;;;;23.08;9.45;;;;;;;17.38;65.71;102177.94;5010224;28;20049;-60
2021/10/27 12:17:28;;;;;;;24.00;9.02;;;;;;;18.01;64.51;102166.13;5014687;28;20037;-61
2021/10/27 12:19:53;;;;;;;24.13;8.65;;;;;;;18.15;62.67;102165.19;5014113;28;20026;-61
2021/10/27 12:22:23;;;;;;;26.30;9.35;;;;;;;17.88;63.50;102164.38;5014442;28;20088;-61
2021/10/27 12:24:58;;;;;;;25.38;9.63;;;;;;;17.28;65.79;102156.63;5016941;28;20400;-62
2021/10/27 12:27:30;;;;;;;24.45;9.20;;;;;;;17.71;64.30;102145.78;5010855;28;20539;-62
2021/10/27 12:30:03;;;;;;;23.45;8.43;;;;;;;19.63;60.97;102147.69;5015560;28;20029;-61
2021/10/27 12:32:29;;;;;;;23.35;8.27;;;;;;;20.78;55.54;102147.81;5014477;28;20034;-63
2021/10/27 12:35:11;;;;;;;22.55;8.00;;;;;;;20.32;55.16;102151.25;5015322;28;20480;-61
2021/10/27 12:37:42;;;;;;;23.08;8.23;;;;;;;20.34;54.28;102135.97;5012388;28;20206;-60
2021/10/27 12:40:27;;;;;;;24.40;8.90;;;;;;;19.91;55.24;102142.91;5022967;28;20431;-60
2021/10/27 12:43:08;;;;;;;23.67;8.60;;;;;;;20.23;55.21;102144.22;5011955;28;20113;-61
2021/10/27 12:45:50;;;;;;;22.60;7.78;;;;;;;20.65;54.43;102135.47;5012644;28;20026;-61
2021/10/27 12:48:20;;;;;;;22.95;8.20;;;;;;;20.66;52.19;102124.75;5014842;28;20059;-60
2021/10/27 12:50:53;;;;;;;22.77;8.55;;;;;;;20.52;53.69;102119.56;5015749;28;20022;-63
2021/10/27 12:53:35;;;;;;;22.85;8.35;;;;;;;20.24;54.13;102113.78;5015138;28;20384;-63
2021/10/27 12:56:03;;;;;;;22.30;7.85;;;;;;;20.06;55.54;102117.63;5011335;28;20030;-67
2021/10/27 12:58:31;;;;;;;24.23;8.23;;;;;;;21.29;52.54;102103.84;5014751;28;20163;-69
2021/10/27 13:01:11;;;;;;;23.50;8.18;;;;;;;21.33;51.45;102102.84;5017326;28;20473;-62
2021/10/27 13:32:16;;;;;;;21.23;7.70;;;;;;;21.22;51.26;102084.25;4975925;28;20047;-68
2021/10/27 13:34:42;;;;;;;22.20;7.53;;;;;;;21.46;50.92;102078.38;4972571;28;20119;-65
2021/10/27 13:37:08;;;;;;;22.40;7.43;;;;;;;21.84;49.23;102082.91;4973246;28;20491;-67
2021/10/27 13:39:34;;;;;;;22.95;7.93;;;;;;;21.41;49.60;102067.75;4975182;28;20039;-73
2021/10/27 13:42:05;;;;;;;23.83;7.40;;;;;;;21.86;50.11;102074.84;4987803;28;20042;-70
2021/10/27 13:44:35;;;;;;;22.60;7.38;;;;;;;21.31;50.83;102071.53;5012778;28;20026;-69
2021/10/27 13:47:16;;;;;;;20.85;6.90;;;;;;;20.76;51.58;102068.16;5005868;28;20025;-70
2021/10/27 13:58:24;;;;;;;22.02;6.75;;;;;;;21.07;51.59;102066.66;4982475;28;20039;-68
2021/10/27 14:06:23;;;;;;;22.42;6.82;;;;;;;22.19;48.31;102066.84;4980292;28;20070;-69
2021/10/27 14:08:52;;;;;;;22.08;6.72;;;;;;;22.24;48.70;102063.13;4982334;28;20054;-66
2021/10/27 14:14:17;;;;;;;21.27;6.28;;;;;;;22.18;48.56;102046.22;4983101;28;20029;-64
2021/10/27 14:22:32;;;;;;;19.17;5.30;;;;;;;22.55;46.79;102048.88;4983184;28;20029;-64
2021/10/27 15:22:26;;;;;;;20.23;5.45;;;;;;;19.65;55.30;101998.38;4956879;28;20026;-69
2021/10/27 15:25:07;;;;;;;18.92;5.70;;;;;;;19.54;56.09;102001.22;4955364;28;20065;-66
2021/10/27 15:30:21;;;;;;;20.75;5.80;;;;;;;19.46;57.13;102003.16;4965931;28;20052;-64
2021/10/27 15:41:16;;;;;;;20.48;5.93;;;;;;;18.46;58.57;101987.38;5009819;28;20092;-62
2021/10/27 15:44:03;;;;;;;19.77;6.07;;;;;;;18.37;59.16;101986.56;5017513;28;20075;-62
2021/10/27 15:51:57;;;;;;;19.88;5.93;;;;;;;17.71;61.17;101988.00;5010449;28;20132;-62
2021/10/27 15:54:23;;;;;;;20.08;6.20;;;;;;;17.30;63.79;101991.81;5013423;28;20027;-63